RJST(METAR)
04/28 17:00
METAR RJST 280800Z 18009KT 9999 FEW050 13/07 Q1007 RMK 1CU050 A2974=
戻る
トップページへ戻る
IMOC Co,.Ltd.